createdAt,value
2023-03-31T00:00:37.215Z,17.50
2023-03-31T00:07:14.614Z,19.40
2023-03-31T00:14:07.195Z,18.30
2023-03-31T00:20:56.847Z,17.70
2023-03-31T00:28:06.346Z,16.70
2023-03-31T00:35:05.382Z,19.10
2023-03-31T00:41:49.291Z,16.90
2023-03-31T00:48:20.820Z,17.70
2023-03-31T00:55:25.470Z,15.70
2023-03-31T01:02:20.238Z,21.00
2023-03-31T01:08:44.737Z,21.60
2023-03-31T01:15:14.293Z,21.00
2023-03-31T01:22:11.603Z,17.80
2023-03-31T01:29:05.367Z,18.50
2023-03-31T01:35:29.365Z,18.30
2023-03-31T01:42:10.726Z,19.00
2023-03-31T01:49:01.868Z,17.70
2023-03-31T01:56:01.175Z,16.10
2023-03-31T02:02:54.211Z,15.20
2023-03-31T02:09:42.384Z,14.40
2023-03-31T02:15:57.340Z,15.10
2023-03-31T02:22:05.238Z,13.50
2023-03-31T02:29:08.260Z,14.00
2023-03-31T02:36:13.030Z,12.50
2023-03-31T02:43:04.591Z,12.80
2023-03-31T02:50:04.537Z,11.10
2023-03-31T02:57:23.135Z,11.60
2023-03-31T03:03:40.799Z,12.50
2023-03-31T03:10:32.617Z,12.90
2023-03-31T03:16:48.505Z,13.40
2023-03-31T03:23:29.536Z,13.40
2023-03-31T03:30:32.519Z,14.90
2023-03-31T03:37:38.583Z,16.10
2023-03-31T03:44:31.339Z,17.30
2023-03-31T03:51:27.456Z,16.20
2023-03-31T03:58:29.317Z,16.70
2023-03-31T04:05:22.936Z,19.10
2023-03-31T04:12:25.238Z,18.40
2023-03-31T04:18:28.155Z,20.00
2023-03-31T04:24:14.911Z,17.80
2023-03-31T04:29:47.055Z,19.40
2023-03-31T04:36:01.691Z,18.20
2023-03-31T04:42:29.623Z,21.80
2023-03-31T04:48:44.875Z,21.90
2023-03-31T04:55:42.132Z,20.70
2023-03-31T05:02:00.862Z,21.30
2023-03-31T05:08:26.717Z,19.70
2023-03-31T05:14:20.948Z,20.40
2023-03-31T05:20:46.586Z,18.90
2023-03-31T05:27:02.667Z,22.00
2023-03-31T05:33:40.771Z,16.60
2023-03-31T05:40:06.541Z,16.60
2023-03-31T05:45:54.887Z,16.40
2023-03-31T05:52:51.109Z,14.80
2023-03-31T05:58:30.556Z,15.00
2023-03-31T06:03:41.386Z,14.10
2023-03-31T06:09:31.696Z,12.20
2023-03-31T06:15:47.901Z,9.50
2023-03-31T06:21:41.890Z,10.40
2023-03-31T06:27:46.512Z,9.30
2023-03-31T06:33:58.422Z,7.70
2023-03-31T06:39:50.291Z,8.30
2023-03-31T06:45:14.819Z,8.20
2023-03-31T06:51:19.850Z,7.10
2023-03-31T06:57:36.516Z,5.80
2023-03-31T07:03:32.748Z,6.70
2023-03-31T07:09:23.877Z,6.70
2023-03-31T07:14:45.865Z,6.00
2023-03-31T07:20:44.601Z,6.40
2023-03-31T07:27:14.340Z,5.90
2023-03-31T07:33:40.597Z,5.90
2023-03-31T07:40:10.546Z,5.80
2023-03-31T07:45:46.065Z,6.70
2023-03-31T07:52:08.824Z,6.00
2023-03-31T07:59:04.041Z,6.20
2023-03-31T08:05:45.880Z,7.10
2023-03-31T08:11:23.675Z,5.80
2023-03-31T08:17:48.291Z,5.50
2023-03-31T08:24:26.824Z,7.20
2023-03-31T08:31:29.451Z,6.30
2023-03-31T08:37:53.106Z,6.30
2023-03-31T08:44:02.127Z,6.00
2023-03-31T08:50:51.767Z,5.40
2023-03-31T08:57:52.624Z,6.20
2023-03-31T09:03:38.574Z,6.10
2023-03-31T09:10:06.211Z,5.70
2023-03-31T09:16:57.101Z,6.40
2023-03-31T09:23:41.604Z,5.40
2023-03-31T09:30:39.941Z,5.40
2023-03-31T09:36:58.937Z,5.20
2023-03-31T09:43:44.927Z,5.20
2023-03-31T09:50:28.459Z,7.00
2023-03-31T09:56:52.876Z,6.50
2023-03-31T10:09:26.646Z,6.00
2023-03-31T10:16:10.159Z,6.10
2023-03-31T10:22:59.324Z,6.00
2023-03-31T10:35:46.213Z,6.30
2023-03-31T10:41:42.122Z,5.10
2023-03-31T10:47:52.502Z,5.00
2023-03-31T10:54:03.978Z,4.90
2023-03-31T11:00:24.560Z,5.40
2023-03-31T11:06:41.654Z,5.10
2023-03-31T11:13:25.723Z,4.90
2023-03-31T11:19:22.922Z,6.50
2023-03-31T11:26:31.235Z,5.60
2023-03-31T11:32:31.344Z,6.00
2023-03-31T11:39:15.914Z,5.10
2023-03-31T11:46:11.551Z,5.20
2023-03-31T11:53:16.927Z,4.30
2023-03-31T11:59:28.077Z,3.60
2023-03-31T12:06:30.176Z,3.50
2023-03-31T12:13:23.982Z,4.00
2023-03-31T12:20:14.219Z,3.10
2023-03-31T12:27:14.508Z,3.00
2023-03-31T12:39:27.315Z,3.10
2023-03-31T12:51:21.176Z,3.30
2023-03-31T12:57:34.035Z,3.30
2023-03-31T13:03:46.604Z,3.80
2023-03-31T13:09:55.540Z,2.90
2023-03-31T13:16:27.799Z,2.90
2023-03-31T13:23:05.385Z,3.60
2023-03-31T13:30:17.957Z,3.90
2023-03-31T13:37:06.429Z,4.70
2023-03-31T13:44:13.463Z,5.00
2023-03-31T13:50:38.797Z,5.90
2023-03-31T13:56:34.849Z,5.60
2023-03-31T14:02:27.633Z,5.70
2023-03-31T14:07:40.465Z,5.70
2023-03-31T14:12:42.930Z,6.70
2023-03-31T14:17:47.366Z,6.50
2023-03-31T14:23:12.407Z,7.80
2023-03-31T14:29:00.060Z,7.70
2023-03-31T14:35:05.207Z,7.10
2023-03-31T14:41:20.391Z,8.20
2023-03-31T14:46:23.594Z,9.10
2023-03-31T14:52:28.866Z,11.00
2023-03-31T14:58:34.555Z,12.00
2023-03-31T15:04:41.908Z,13.20
2023-03-31T15:10:40.135Z,10.60
2023-03-31T15:17:04.211Z,10.10
2023-03-31T15:23:11.892Z,9.10
2023-03-31T15:28:42.843Z,8.70
2023-03-31T15:34:37.151Z,10.30
2023-03-31T15:47:38.099Z,6.30
2023-03-31T15:53:14.242Z,6.40
2023-03-31T15:58:59.484Z,5.80
2023-03-31T16:04:06.473Z,6.50
2023-03-31T16:09:25.180Z,7.10
2023-03-31T16:14:50.751Z,7.80
2023-03-31T16:21:15.770Z,7.70
2023-03-31T16:27:50.475Z,7.90
2023-03-31T16:34:46.441Z,12.10
2023-03-31T16:40:21.801Z,9.30
2023-03-31T16:45:36.019Z,8.20
2023-03-31T16:51:29.801Z,8.40
2023-03-31T16:57:48.186Z,7.90
2023-03-31T17:03:43.412Z,7.60
2023-03-31T17:10:03.323Z,10.50
2023-03-31T17:15:52.094Z,9.60
2023-03-31T17:22:16.825Z,3.60
2023-03-31T17:27:41.674Z,2.70
2023-03-31T17:33:21.950Z,3.20
2023-03-31T17:39:38.988Z,3.70
2023-03-31T17:45:34.161Z,3.20
2023-03-31T17:50:49.075Z,4.00
2023-03-31T17:56:28.896Z,6.10
2023-03-31T18:01:37.925Z,6.40
2023-03-31T18:07:03.550Z,6.70
2023-03-31T18:12:59.330Z,7.40
2023-03-31T18:18:43.550Z,4.10
2023-03-31T18:23:54.583Z,4.70
2023-03-31T18:35:22.078Z,14.50
2023-03-31T18:40:50.295Z,34.30
2023-03-31T18:46:45.314Z,38.10
2023-03-31T18:51:53.627Z,35.50
2023-03-31T18:57:34.285Z,33.10
2023-03-31T19:03:29.765Z,27.20
2023-03-31T19:08:56.595Z,36.80
2023-03-31T19:14:37.042Z,40.40
2023-03-31T19:19:48.268Z,50.80
2023-03-31T19:25:04.987Z,54.60
2023-03-31T19:30:44.401Z,27.90
2023-03-31T19:36:46.602Z,22.10
2023-03-31T19:43:08.141Z,23.50
2023-03-31T19:48:56.666Z,29.40
2023-03-31T19:53:58.694Z,30.00
2023-03-31T19:59:22.996Z,24.60
2023-03-31T20:04:45.446Z,21.10
2023-03-31T20:10:39.482Z,16.80
2023-03-31T20:15:41.371Z,14.30
2023-03-31T20:21:12.754Z,11.00
2023-03-31T20:26:35.422Z,6.90
2023-03-31T20:32:53.014Z,5.40
2023-03-31T20:39:13.619Z,4.10
2023-03-31T20:44:36.720Z,4.00
2023-03-31T20:49:41.657Z,2.70
2023-03-31T20:54:46.125Z,2.80
2023-03-31T21:00:14.308Z,2.50
2023-03-31T21:06:32.196Z,2.30
2023-03-31T21:12:57.015Z,3.10
2023-03-31T21:19:21.652Z,3.10
2023-03-31T21:25:43.249Z,3.30
2023-03-31T21:32:04.780Z,3.10
2023-03-31T21:38:32.071Z,3.60
2023-03-31T21:43:55.908Z,4.10
2023-03-31T21:55:41.076Z,3.00
2023-03-31T22:02:26.406Z,2.90
2023-03-31T22:09:09.138Z,4.10
2023-03-31T22:15:33.029Z,3.30
2023-03-31T22:21:43.147Z,3.70
2023-03-31T22:28:07.321Z,3.70
2023-03-31T22:33:49.807Z,3.40
2023-03-31T22:40:14.947Z,3.70
2023-03-31T22:46:31.422Z,3.50
2023-03-31T22:53:05.213Z,3.20
2023-03-31T22:58:37.854Z,4.00
2023-03-31T23:04:25.327Z,4.30
2023-03-31T23:11:06.337Z,3.70
2023-03-31T23:17:14.549Z,3.50
2023-03-31T23:24:00.472Z,4.10
2023-03-31T23:30:10.026Z,3.60
2023-03-31T23:35:54.934Z,3.50
2023-03-31T23:42:19.124Z,2.80
2023-03-31T23:48:37.092Z,4.10
2023-03-31T23:54:36.323Z,3.60
